Time;durP1;ratioP1;P1;durP2;ratioP2;P2;SDS_P1;SDS_P2;PMS_P1;PMS_P2;Temp;Humidity;BMP_temperature;BMP_pressure;BME280_temperature;BME280_humidity;BME280_pressure;Samples;Min_cycle;Max_cycle;Signal;HPM_P1;HPM_P2
2022/09/14 00:00:40;;;;;;;10.43;5.07;;;;;;;15.42;100.00;100682.06;5223964;28;21564;-68
2022/09/14 00:03:12;;;;;;;14.05;5.60;;;;;;;15.45;100.00;100673.69;5215875;28;20025;-68
2022/09/14 00:05:45;;;;;;;13.77;6.20;;;;;;;15.39;100.00;100668.09;5214151;28;20482;-68
2022/09/14 00:08:16;;;;;;;17.65;6.93;;;;;;;15.37;100.00;100662.84;5219310;28;20085;-68
2022/09/14 00:10:47;;;;;;;11.27;5.70;;;;;;;15.22;100.00;100649.09;5219684;28;20025;-68
2022/09/14 00:13:19;;;;;;;14.77;6.60;;;;;;;15.28;100.00;100643.13;5213087;28;20041;-68
2022/09/14 00:15:50;;;;;;;15.18;6.28;;;;;;;15.16;100.00;100646.19;5218013;28;20029;-68
2022/09/14 00:18:23;;;;;;;12.85;5.53;;;;;;;15.01;100.00;100646.69;5219787;28;20057;-70
2022/09/14 00:21:03;;;;;;;12.32;5.80;;;;;;;14.95;100.00;100652.69;5222512;28;20171;-70
2022/09/14 00:23:36;;;;;;;13.75;6.00;;;;;;;14.99;100.00;100653.22;5239917;28;20477;-70
2022/09/14 00:26:11;;;;;;;13.27;6.00;;;;;;;14.96;100.00;100649.00;5225021;28;20033;-70
2022/09/14 00:28:45;;;;;;;13.70;5.57;;;;;;;14.75;100.00;100651.94;5229553;28;20033;-70
2022/09/14 00:31:17;;;;;;;;;;;;;;;14.80;100.00;100662.22;5227978;28;20825;-68
2022/09/14 00:33:50;;;;;;;13.48;6.05;;;;;;;14.72;100.00;100654.09;5223561;28;19943;-68
2022/09/14 00:36:25;;;;;;;10.68;5.72;;;;;;;14.76;100.00;100648.25;5220747;28;20021;-68
2022/09/14 00:38:57;;;;;;;14.65;6.35;;;;;;;14.78;100.00;100642.75;5223456;28;20037;-68
2022/09/14 00:41:33;;;;;;;19.48;6.95;;;;;;;14.80;100.00;100644.28;5218839;28;20044;-68
2022/09/14 00:44:26;;;;;;;14.05;7.25;;;;;;;14.75;100.00;100635.00;5230206;28;20097;-69
2022/09/14 00:47:00;;;;;;;12.00;6.97;;;;;;;14.74;100.00;100627.94;5229895;28;20083;-69
2022/09/14 00:49:40;;;;;;;13.52;6.45;;;;;;;14.72;100.00;100632.59;5237931;28;20559;-68
2022/09/14 00:52:16;;;;;;;16.52;8.05;;;;;;;14.77;100.00;100625.78;5228365;28;20333;-68
2022/09/14 00:55:00;;;;;;;18.30;8.80;;;;;;;14.85;100.00;100614.28;5221212;28;20035;-68
2022/09/14 00:57:36;;;;;;;11.90;7.47;;;;;;;14.61;100.00;100617.53;5223514;28;20025;-68
2022/09/14 01:00:09;;;;;;;15.13;7.15;;;;;;;14.54;100.00;100605.69;5225062;28;20379;-68
2022/09/14 01:02:41;;;;;;;13.55;6.38;;;;;;;14.47;100.00;100605.41;5243996;28;20120;-69
2022/09/14 01:05:13;;;;;;;15.52;6.88;;;;;;;14.57;100.00;100589.28;5231791;28;20029;-68
2022/09/14 01:07:55;;;;;;;13.95;6.07;;;;;;;14.61;100.00;100591.53;5225037;28;20164;-69
2022/09/14 01:11:00;;;;;;;14.30;5.82;;;;;;;14.51;100.00;100596.91;5216514;28;20041;-68
2022/09/14 01:13:48;;;;;;;15.27;6.57;;;;;;;14.48;100.00;100588.34;5224119;28;20487;-69
2022/09/14 01:17:00;;;;;;;15.73;6.78;;;;;;;14.46;100.00;100582.25;5225001;28;20120;-69
2022/09/14 01:19:53;;;;;;;16.38;8.25;;;;;;;14.53;100.00;100575.28;5225530;28;20028;-69
2022/09/14 01:22:33;;;;;;;16.15;8.18;;;;;;;14.46;100.00;100582.25;5218505;28;20029;-69
2022/09/14 01:25:33;;;;;;;12.02;7.20;;;;;;;14.40;100.00;100586.38;5221148;28;20095;-69
2022/09/14 01:28:19;;;;;;;15.93;7.30;;;;;;;14.42;100.00;100595.13;5223755;28;20033;-69
2022/09/14 01:30:52;;;;;;;12.55;6.68;;;;;;;14.31;100.00;100584.59;5228156;28;20502;-69
2022/09/14 01:33:29;;;;;;;11.57;7.32;;;;;;;14.44;100.00;100594.97;5221824;28;20343;-69
2022/09/14 01:36:05;;;;;;;15.48;7.10;;;;;;;14.29;100.00;100597.31;5230711;28;20025;-69
2022/09/14 01:38:40;;;;;;;12.68;6.97;;;;;;;14.30;100.00;100589.13;5219294;28;20064;-69
2022/09/14 01:41:16;;;;;;;13.45;7.32;;;;;;;14.29;100.00;100586.56;5226493;28;20287;-69
2022/09/14 01:43:53;;;;;;;12.98;6.55;;;;;;;14.21;100.00;100584.63;5218695;28;20025;-69
2022/09/14 01:46:30;;;;;;;13.75;6.20;;;;;;;14.19;100.00;100580.38;5225395;28;20497;-68
2022/09/14 01:49:21;;;;;;;12.25;6.32;;;;;;;14.23;100.00;100587.16;5234576;28;20044;-68
2022/09/14 01:52:04;;;;;;;12.98;6.47;;;;;;;14.14;100.00;100570.09;5225594;28;20581;-70
2022/09/14 01:54:56;;;;;;;12.30;6.10;;;;;;;14.19;100.00;100577.69;5222568;28;20072;-68
2022/09/14 01:57:38;;;;;;;15.23;5.68;;;;;;;14.08;100.00;100570.69;5227216;28;20041;-68
2022/09/14 02:00:15;;;;;;;16.02;6.35;;;;;;;14.06;100.00;100570.84;5237486;28;20385;-68
2022/09/14 02:02:55;;;;;;;12.25;5.93;;;;;;;14.12;100.00;100564.88;5224517;28;20029;-68
2022/09/14 02:05:36;;;;;;;11.63;6.40;;;;;;;14.06;100.00;100570.84;5231160;28;20495;-68
2022/09/14 02:08:07;;;;;;;16.65;6.63;;;;;;;14.13;100.00;100571.09;5229295;28;20029;-68
2022/09/14 02:10:39;;;;;;;13.23;6.10;;;;;;;14.06;100.00;100564.63;5234018;28;20493;-68
2022/09/14 02:13:11;;;;;;;13.90;5.95;;;;;;;14.01;100.00;100569.59;5227764;28;20390;-68
2022/09/14 02:15:42;;;;;;;13.65;6.28;;;;;;;13.99;100.00;100575.09;5234181;28;20025;-70
2022/09/14 02:18:13;;;;;;;14.98;6.38;;;;;;;14.11;100.00;100573.06;5223071;28;20817;-68
2022/09/14 02:20:50;;;;;;;18.05;7.43;;;;;;;13.97;100.00;100576.25;5225630;28;20067;-68
2022/09/14 02:23:22;;;;;;;12.65;5.78;;;;;;;14.11;100.00;100573.06;5210256;28;20036;-68
2022/09/14 02:25:54;;;;;;;13.13;6.25;;;;;;;13.97;100.00;100573.56;5220321;28;20024;-68
2022/09/14 02:28:25;;;;;;;15.77;6.47;;;;;;;14.12;100.00;100567.56;5207009;28;20021;-68
2022/09/14 02:31:14;;;;;;;11.80;6.70;;;;;;;14.08;100.00;100576.91;5210224;28;20064;-68
2022/09/14 02:34:13;;;;;;;13.98;6.60;;;;;;;14.05;100.00;100576.34;5208353;28;20072;-68
2022/09/14 02:36:59;;;;;;;11.10;6.07;;;;;;;14.06;100.00;100578.06;5220061;28;20093;-68
2022/09/14 02:39:34;;;;;;;13.07;6.63;;;;;;;14.07;100.00;100577.03;5219128;28;20120;-68
2022/09/14 02:42:08;;;;;;;;;;;;;;;14.01;100.00;100578.47;5218125;28;20076;-68
2022/09/14 02:44:55;;;;;;;17.75;7.20;;;;;;;14.03;100.00;100571.13;5217079;28;20060;-68
2022/09/14 02:47:54;;;;;;;15.52;6.63;;;;;;;14.04;100.00;100572.00;5219305;28;20088;-68
2022/09/14 02:50:42;;;;;;;11.90;5.88;;;;;;;13.93;100.00;100573.84;5237612;28;20030;-68
2022/09/14 02:53:35;;;;;;;15.30;6.60;;;;;;;13.88;100.00;100572.59;5216333;28;20034;-68
2022/09/14 02:56:10;;;;;;;12.00;5.93;;;;;;;13.86;100.00;100569.22;5217185;28;20751;-68
2022/09/14 02:58:42;;;;;;;;;;;;;;;13.92;100.00;100550.72;5215087;28;20650;-68
2022/09/14 03:01:16;;;;;;;16.00;6.35;;;;;;;14.03;100.00;100559.56;5217269;28;20421;-68
2022/09/14 03:03:48;;;;;;;13.30;5.97;;;;;;;13.93;100.00;100552.38;5217832;28;20098;-68
2022/09/14 03:06:19;;;;;;;15.77;6.30;;;;;;;13.99;100.00;100550.94;5218364;28;20030;-68
2022/09/14 03:08:51;;;;;;;13.55;5.93;;;;;;;13.96;100.00;100551.28;5228036;28;20108;-68
2022/09/14 03:11:22;;;;;;;12.57;5.93;;;;;;;14.06;100.00;100545.88;5220809;28;20113;-68
2022/09/14 03:13:53;;;;;;;13.02;5.88;;;;;;;13.97;100.00;100542.22;5222742;28;20048;-68
2022/09/14 03:16:24;;;;;;;15.88;7.28;;;;;;;14.06;100.00;100535.97;5236150;28;20041;-68
2022/09/14 03:18:56;;;;;;;12.48;5.95;;;;;;;13.93;100.00;100543.50;5228085;28;20024;-68
2022/09/14 03:21:27;;;;;;;14.18;6.25;;;;;;;13.98;100.00;100541.22;5234827;28;20076;-68
2022/09/14 03:23:58;;;;;;;12.48;6.85;;;;;;;14.12;100.00;100539.91;5229407;28;20029;-68
2022/09/14 03:26:30;;;;;;;15.88;6.85;;;;;;;14.00;100.00;100541.06;5232752;28;20101;-68
2022/09/14 03:29:01;;;;;;;15.10;7.10;;;;;;;14.02;100.00;100539.94;5224102;28;20489;-68
2022/09/14 03:31:33;;;;;;;15.85;7.10;;;;;;;13.93;100.00;100530.09;5226677;28;20040;-68
2022/09/14 03:34:04;;;;;;;12.30;7.28;;;;;;;14.07;100.00;100529.59;5226632;28;20029;-68
2022/09/14 03:36:35;;;;;;;16.13;7.15;;;;;;;14.05;100.00;100518.16;5218692;28;20559;-68
2022/09/14 03:39:08;;;;;;;11.77;6.80;;;;;;;14.01;100.00;100524.00;5219902;28;20068;-68
2022/09/14 03:41:39;;;;;;;13.45;7.32;;;;;;;13.93;100.00;100512.16;5224227;28;20471;-68
2022/09/14 03:44:10;;;;;;;16.65;7.38;;;;;;;14.07;100.00;100518.03;5216538;28;20104;-68
2022/09/14 03:46:43;;;;;;;13.55;7.65;;;;;;;14.01;100.00;100513.25;5220455;28;20128;-68
2022/09/14 03:49:14;;;;;;;16.25;7.07;;;;;;;14.02;100.00;100499.72;5215501;28;20037;-68
2022/09/14 03:51:45;;;;;;;11.90;6.60;;;;;;;13.95;100.00;100503.97;5218577;28;20038;-68
2022/09/14 03:54:16;;;;;;;16.30;6.72;;;;;;;13.93;100.00;100509.47;5221401;28;20022;-68
2022/09/14 03:56:50;;;;;;;11.65;6.35;;;;;;;13.88;100.00;100509.09;5225769;28;20417;-68
2022/09/14 03:59:22;;;;;;;13.55;6.32;;;;;;;13.78;100.00;100502.91;5231625;28;20030;-68
2022/09/14 04:01:53;;;;;;;14.68;5.90;;;;;;;13.80;100.00;100500.06;5221523;28;20045;-68
2022/09/14 04:04:24;;;;;;;13.73;5.80;;;;;;;13.66;100.00;100501.41;5215352;28;20612;-69
2022/09/14 04:06:56;;;;;;;12.60;5.57;;;;;;;13.68;100.00;100499.41;5216694;28;20481;-68
2022/09/14 04:09:27;;;;;;;13.55;6.00;;;;;;;13.67;100.00;100498.59;5216114;28;20064;-68
2022/09/14 04:11:59;;;;;;;13.48;6.20;;;;;;;13.64;100.00;100500.69;5215981;28;20109;-68
2022/09/14 04:14:30;;;;;;;12.73;5.68;;;;;;;13.80;100.00;100500.06;5223450;28;20065;-68
2022/09/14 04:17:02;;;;;;;11.50;6.60;;;;;;;13.77;100.00;100495.88;5220867;28;20097;-68
2022/09/14 04:19:36;;;;;;;11.75;6.85;;;;;;;13.78;100.00;100494.00;5224939;28;20029;-68
2022/09/14 04:22:07;;;;;;;14.98;6.43;;;;;;;13.70;100.00;100494.75;5214085;28;20033;-68
2022/09/14 04:24:39;;;;;;;15.90;6.35;;;;;;;13.73;100.00;100494.47;5215661;28;20639;-68
2022/09/14 04:27:10;;;;;;;14.77;6.63;;;;;;;13.80;100.00;100500.06;5214358;28;20030;-68
2022/09/14 04:29:41;;;;;;;14.73;6.82;;;;;;;13.73;100.00;100487.25;5217453;28;20030;-69
2022/09/14 04:32:13;;;;;;;13.70;6.57;;;;;;;13.70;100.00;100489.38;5222419;28;20091;-69
2022/09/14 04:34:44;;;;;;;12.32;6.82;;;;;;;13.70;100.00;100490.22;5220271;28;20379;-68
2022/09/14 04:37:15;;;;;;;13.30;6.05;;;;;;;13.72;100.00;100488.25;5220541;28;20478;-68
2022/09/14 04:39:46;;;;;;;11.02;5.78;;;;;;;13.84;100.00;100480.84;5220731;28;20157;-69
2022/09/14 04:42:18;;;;;;;11.52;6.30;;;;;;;13.78;100.00;100480.59;5214726;28;20410;-69
2022/09/14 04:44:50;;;;;;;12.90;6.47;;;;;;;13.80;100.00;100473.25;5224313;28;20056;-69
2022/09/14 04:47:21;;;;;;;13.90;6.35;;;;;;;13.82;100.00;100474.78;5217660;28;20037;-70
2022/09/14 04:49:53;;;;;;;16.20;6.80;;;;;;;13.79;100.00;100476.91;5217618;28;20463;-69
2022/09/14 04:52:24;;;;;;;14.98;6.90;;;;;;;13.96;100.00;100475.28;5213857;28;20098;-69
2022/09/14 04:54:55;;;;;;;15.20;6.40;;;;;;;13.93;100.00;100469.25;5246707;28;20033;-69
2022/09/14 04:57:26;;;;;;;14.05;6.30;;;;;;;13.87;100.00;100463.63;5221132;28;21669;-69
2022/09/14 04:59:58;;;;;;;14.48;5.75;;;;;;;13.85;100.00;100461.09;5232080;28;20114;-69
2022/09/14 05:02:30;;;;;;;12.85;6.25;;;;;;;13.90;100.00;100460.66;5229164;28;20035;-69
2022/09/14 05:05:02;;;;;;;11.15;5.72;;;;;;;13.77;100.00;100452.97;5226197;28;20025;-68
2022/09/14 05:07:33;;;;;;;13.82;5.70;;;;;;;13.79;100.00;100459.00;5218001;28;20087;-69
2022/09/14 05:10:06;;;;;;;12.45;5.53;;;;;;;13.91;100.00;100457.81;5234413;28;20114;-69
2022/09/14 05:12:37;;;;;;;12.88;5.60;;;;;;;13.91;100.00;100454.31;5226317;28;20490;-69
2022/09/14 05:15:09;;;;;;;12.68;5.97;;;;;;;13.96;100.00;100449.34;5234828;28;20029;-69
2022/09/14 05:17:40;;;;;;;13.18;5.88;;;;;;;13.77;100.00;100450.28;5233341;28;20059;-69
2022/09/14 05:20:12;;;;;;;13.70;5.90;;;;;;;13.79;100.00;100448.28;5225679;28;20029;-69
2022/09/14 05:22:43;;;;;;;13.90;5.75;;;;;;;13.78;100.00;100451.13;5218056;28;20083;-69
2022/09/14 05:25:14;;;;;;;9.18;5.38;;;;;;;13.78;100.00;100453.78;5239848;28;20029;-69
2022/09/14 05:27:46;;;;;;;12.52;5.53;;;;;;;13.81;100.00;100458.88;5224633;28;20032;-69
2022/09/14 05:30:17;;;;;;;13.02;5.95;;;;;;;13.84;100.00;100455.88;5224484;28;20043;-69
2022/09/14 05:32:48;;;;;;;12.13;6.07;;;;;;;13.81;100.00;100459.72;5225318;28;20033;-69
2022/09/14 05:35:19;;;;;;;13.45;7.15;;;;;;;13.87;100.00;100461.78;5219079;28;20081;-69
2022/09/14 05:37:51;;;;;;;11.48;5.75;;;;;;;13.89;100.00;100459.81;5219121;28;20034;-69
2022/09/14 05:40:22;;;;;;;14.40;6.13;;;;;;;13.96;100.00;100460.06;5238697;28;20060;-69
2022/09/14 05:42:53;;;;;;;12.35;6.15;;;;;;;13.84;100.00;100464.75;5224499;28;20037;-69
2022/09/14 05:45:24;;;;;;;13.23;6.63;;;;;;;13.88;100.00;100460.81;5229459;28;20133;-69
2022/09/14 05:48:00;;;;;;;12.50;6.32;;;;;;;13.91;100.00;100460.50;5228975;28;20136;-69
2022/09/14 05:50:32;;;;;;;13.63;5.90;;;;;;;13.77;100.00;100466.38;5229186;28;20029;-69
2022/09/14 05:53:04;;;;;;;16.55;6.85;;;;;;;13.87;100.00;100469.84;5235598;28;20033;-69
2022/09/14 05:55:35;;;;;;;11.98;6.40;;;;;;;13.96;100.00;100473.47;5234404;28;20026;-69
2022/09/14 05:58:06;;;;;;;13.18;6.43;;;;;;;13.80;100.00;100473.25;5203209;28;20522;-69
2022/09/14 06:00:38;;;;;;;13.60;6.78;;;;;;;13.93;100.00;100465.72;5207164;28;20032;-69
2022/09/14 06:03:09;;;;;;;13.85;7.45;;;;;;;13.98;100.00;100470.63;5215252;28;20029;-69
2022/09/14 06:05:40;;;;;;;15.88;7.90;;;;;;;13.95;100.00;100470.94;5207067;28;20113;-71
2022/09/14 06:08:12;;;;;;;12.70;7.32;;;;;;;13.88;100.00;100474.22;5211141;28;20021;-69
2022/09/14 06:10:43;;;;;;;13.32;7.13;;;;;;;13.87;100.00;100475.19;5217167;28;21126;-69
2022/09/14 06:13:15;;;;;;;11.98;7.15;;;;;;;13.79;100.00;100477.78;5214954;28;20045;-69
2022/09/14 06:15:46;;;;;;;13.65;6.85;;;;;;;13.82;100.00;100485.53;5216411;28;20526;-69
2022/09/14 06:18:17;;;;;;;17.92;7.50;;;;;;;13.88;100.00;100481.41;5226581;28;20049;-69
2022/09/14 06:20:50;;;;;;;12.35;6.88;;;;;;;13.71;100.00;100489.25;5217208;28;20423;-69
2022/09/14 06:23:22;;;;;;;10.82;6.97;;;;;;;13.77;100.00;100485.13;5216596;28;20032;-69
2022/09/14 06:25:54;;;;;;;11.75;6.72;;;;;;;13.73;100.00;100487.25;5215756;28;20718;-69
2022/09/14 06:28:27;;;;;;;11.73;7.65;;;;;;;13.79;100.00;100487.66;5214414;28;20533;-69
2022/09/14 06:30:59;;;;;;;12.38;7.53;;;;;;;13.83;100.00;100479.19;5219168;28;20033;-69
2022/09/14 06:33:30;;;;;;;13.07;7.78;;;;;;;13.90;100.00;100482.09;5214894;28;20034;-69
2022/09/14 06:36:11;;;;;;;15.27;8.15;;;;;;;13.75;100.00;100480.88;5215614;28;20460;-70
2022/09/14 06:38:43;;;;;;;17.58;7.78;;;;;;;13.82;100.00;100477.47;5214842;28;20499;-70
2022/09/14 06:41:17;;;;;;;17.90;7.43;;;;;;;13.94;100.00;100478.16;5219221;28;20037;-70
2022/09/14 06:43:49;;;;;;;19.25;8.38;;;;;;;13.81;100.00;100478.47;5217200;28;20029;-69
2022/09/14 06:46:24;;;;;;;15.45;7.28;;;;;;;13.74;100.00;100474.69;5215377;28;20036;-70
2022/09/14 06:49:05;;;;;;;15.38;7.65;;;;;;;13.77;100.00;100468.19;5218499;28;20033;-70
2022/09/14 06:51:43;;;;;;;13.98;8.43;;;;;;;13.63;100.00;100467.66;5216752;28;20022;-69
2022/09/14 06:54:16;;;;;;;14.88;7.57;;;;;;;13.79;100.00;100460.81;5220551;28;20025;-69
2022/09/14 06:56:47;;;;;;;18.65;8.45;;;;;;;13.81;100.00;100450.84;5216425;28;20029;-69
2022/09/14 06:59:19;;;;;;;12.30;7.18;;;;;;;13.62;100.00;100457.13;5214544;28;20037;-70
2022/09/14 07:01:50;;;;;;;50.55;12.85;;;;;;;13.92;100.00;100451.47;5226230;28;20455;-70
2022/09/14 07:04:21;;;;;;;17.23;8.10;;;;;;;13.82;100.00;100453.34;5225808;28;20022;-70
2022/09/14 07:06:53;;;;;;;11.80;7.18;;;;;;;13.78;100.00;100459.16;5220270;28;20028;-69
2022/09/14 07:09:24;;;;;;;16.27;6.78;;;;;;;13.73;100.00;100448.88;5226553;28;20037;-69
2022/09/14 07:11:55;;;;;;;17.58;6.95;;;;;;;13.73;100.00;100443.53;5230893;28;20049;-69
2022/09/14 07:14:27;;;;;;;13.82;7.05;;;;;;;13.73;100.00;100440.84;5215788;28;20033;-69
2022/09/14 07:16:58;;;;;;;14.93;7.65;;;;;;;13.68;100.00;100443.94;5226423;28;20022;-69
2022/09/14 07:19:29;;;;;;;17.13;7.53;;;;;;;13.75;100.00;100444.22;5216688;28;20525;-70
2022/09/14 07:22:01;;;;;;;15.32;7.55;;;;;;;13.64;100.00;100444.41;5216950;28;20088;-69
2022/09/14 07:24:32;;;;;;;18.25;7.75;;;;;;;13.71;100.00;100448.16;5222134;28;20482;-69
2022/09/14 07:27:03;;;;;;;17.50;7.60;;;;;;;13.64;100.00;100441.72;5214522;28;20029;-69
2022/09/14 07:29:34;;;;;;;16.20;7.50;;;;;;;13.62;100.00;100441.03;5213837;28;20105;-69
2022/09/14 07:32:06;;;;;;;13.25;8.32;;;;;;;13.76;100.00;100440.53;5215015;28;20030;-69
2022/09/14 07:34:37;;;;;;;13.98;7.53;;;;;;;13.69;100.00;100439.44;5215078;28;20476;-69
2022/09/14 07:37:09;;;;;;;15.07;7.88;;;;;;;13.72;100.00;100439.97;5215564;28;20128;-69
2022/09/14 07:39:40;;;;;;;13.60;7.43;;;;;;;13.65;100.00;100448.75;5217793;28;20033;-69
2022/09/14 07:42:11;;;;;;;16.02;8.15;;;;;;;13.89;100.00;100443.72;5217383;28;20447;-70
2022/09/14 07:44:43;;;;;;;22.77;8.90;;;;;;;13.83;100.00;100438.94;5227012;28;20052;-69
2022/09/14 07:47:14;;;;;;;16.63;9.02;;;;;;;13.82;100.00;100439.94;5224784;28;20073;-70
2022/09/14 07:49:45;;;;;;;18.15;9.00;;;;;;;13.83;100.00;100438.13;5234836;28;20079;-70
2022/09/14 07:52:16;;;;;;;19.80;10.20;;;;;;;13.95;100.00;100436.91;5239477;28;20036;-69
2022/09/14 07:54:48;;;;;;;17.30;9.38;;;;;;;13.95;100.00;100444.13;5237594;28;20091;-69
2022/09/14 07:57:19;;;;;;;19.73;9.25;;;;;;;13.88;100.00;100442.03;5220513;28;20037;-69
2022/09/14 07:59:51;;;;;;;14.55;9.30;;;;;;;13.75;100.00;100438.84;5217988;28;20521;-69
2022/09/14 08:02:23;;;;;;;17.42;9.38;;;;;;;13.80;100.00;100439.25;5223739;28;20038;-70
2022/09/14 08:04:54;;;;;;;15.18;9.00;;;;;;;13.84;100.00;100435.25;5229866;28;20030;-69
2022/09/14 08:07:26;;;;;;;15.60;9.50;;;;;;;13.84;100.00;100437.94;5246865;28;20384;-69
2022/09/14 08:09:57;;;;;;;19.45;9.85;;;;;;;13.82;100.00;100436.41;5227889;28;20067;-69
2022/09/14 08:12:28;;;;;;;16.55;9.82;;;;;;;13.90;100.00;100437.38;5233764;28;20574;-69
2022/09/14 08:14:59;;;;;;;20.33;10.57;;;;;;;13.96;100.00;100441.28;5219311;28;20034;-69
2022/09/14 08:17:31;;;;;;;18.73;10.32;;;;;;;13.92;100.00;100437.19;5233339;28;20021;-69
2022/09/14 08:20:03;;;;;;;20.38;11.30;;;;;;;13.95;100.00;100431.53;5227366;28;20028;-69
2022/09/14 08:22:34;;;;;;;18.65;11.40;;;;;;;13.87;100.00;100428.78;5231061;28;20063;-69
2022/09/14 08:25:05;;;;;;;18.48;10.43;;;;;;;13.84;100.00;100427.22;5231566;28;20095;-69
2022/09/14 08:27:37;;;;;;;16.83;10.88;;;;;;;14.03;100.00;100433.47;5232017;28;20508;-70
2022/09/14 08:30:09;;;;;;;22.13;12.35;;;;;;;14.00;100.00;100437.31;5234205;28;20048;-69
2022/09/14 08:32:41;;;;;;;20.25;11.18;;;;;;;14.05;100.00;100439.53;5239034;28;20065;-69
2022/09/14 08:35:12;;;;;;;17.88;11.27;;;;;;;14.11;100.00;100441.63;5228453;28;20160;-69
2022/09/14 08:37:43;;;;;;;18.67;11.00;;;;;;;14.05;100.00;100440.38;5228313;28;20372;-69
2022/09/14 08:40:16;;;;;;;17.52;10.50;;;;;;;14.02;100.00;100440.69;5246081;28;20029;-69
2022/09/14 08:42:49;;;;;;;20.15;10.18;;;;;;;14.12;100.00;100446.84;5227474;28;20037;-69
2022/09/14 08:45:22;;;;;;;18.03;11.17;;;;;;;14.10;100.00;100443.47;5235106;28;20049;-69
2022/09/14 08:47:56;;;;;;;18.77;11.57;;;;;;;14.06;100.00;100449.28;5232041;28;20053;-69
2022/09/14 08:50:29;;;;;;;23.33;11.55;;;;;;;14.14;100.00;100452.06;5234325;28;20033;-69
2022/09/14 08:53:00;;;;;;;18.40;11.35;;;;;;;14.04;100.00;100446.75;5231772;28;20107;-69
2022/09/14 08:55:45;;;;;;;20.52;12.38;;;;;;;14.21;100.00;100449.59;5231269;28;20029;-70
2022/09/14 08:58:20;;;;;;;24.88;13.73;;;;;;;14.25;100.00;100451.00;5244958;28;20037;-69
2022/09/14 09:01:20;;;;;;;20.00;13.50;;;;;;;14.28;100.00;100454.22;5234305;28;20029;-70
2022/09/14 09:04:22;;;;;;;24.42;14.27;;;;;;;14.22;100.00;100445.94;5235588;28;20479;-70
2022/09/14 09:07:11;;;;;;;24.70;13.95;;;;;;;14.23;100.00;100443.09;5235927;28;20038;-70
2022/09/14 09:09:50;;;;;;;24.80;14.57;;;;;;;14.37;100.00;100440.91;5234942;28;20079;-70
2022/09/14 09:12:44;;;;;;;30.10;16.95;;;;;;;14.30;100.00;100446.88;5229765;28;20073;-70
2022/09/14 09:15:25;;;;;;;30.20;16.75;;;;;;;14.26;100.00;100450.84;5234889;28;20029;-70
2022/09/14 09:18:10;;;;;;;27.13;16.42;;;;;;;14.25;100.00;100448.34;5233063;28;20076;-70
2022/09/14 09:20:46;;;;;;;28.27;17.10;;;;;;;14.29;100.00;100441.66;5237545;28;20041;-70
2022/09/14 09:23:23;;;;;;;26.80;16.60;;;;;;;14.35;100.00;100434.84;5230905;28;20084;-69
2022/09/14 09:25:57;;;;;;;28.20;17.80;;;;;;;14.38;100.00;100443.44;5241650;28;20033;-70
2022/09/14 09:28:29;;;;;;;;;;;;;;;14.38;100.00;100442.56;5235863;28;20361;-70
2022/09/14 09:31:03;;;;;;;28.73;18.65;;;;;;;14.44;100.00;100442.81;5230224;28;19970;-70
2022/09/14 09:33:35;;;;;;;30.92;19.83;;;;;;;14.31;100.00;100440.50;5231451;28;20044;-69
2022/09/14 09:36:11;;;;;;;31.08;20.15;;;;;;;14.39;100.00;100437.06;5239200;28;20467;-70
2022/09/14 09:38:43;;;;;;;37.47;21.02;;;;;;;14.55;100.00;100431.00;5226907;28;20088;-70
2022/09/14 09:41:21;;;;;;;32.53;20.60;;;;;;;14.32;100.00;100430.59;5225412;28;20033;-69
2022/09/14 09:44:05;;;;;;;30.25;20.92;;;;;;;14.40;100.00;100433.41;5228121;28;20049;-70
2022/09/14 09:46:54;;;;;;;31.45;20.73;;;;;;;14.48;100.00;100435.31;5227407;28;20033;-70
2022/09/14 09:49:37;;;;;;;35.47;21.95;;;;;;;14.56;100.00;100437.22;5226986;28;20026;-69
2022/09/14 09:52:11;;;;;;;33.92;21.05;;;;;;;14.53;100.00;100443.72;5231408;28;20083;-70
2022/09/14 09:54:51;;;;;;;30.58;20.35;;;;;;;14.53;100.00;100443.72;5236265;28;20041;-69
2022/09/14 09:57:34;;;;;;;32.83;21.02;;;;;;;14.65;100.00;100441.69;5235972;28;20029;-70
2022/09/14 10:00:18;;;;;;;31.25;20.85;;;;;;;14.55;100.00;100446.28;5227451;28;20026;-69
2022/09/14 10:02:50;;;;;;;28.23;20.33;;;;;;;14.56;100.00;100438.06;5243143;28;20461;-70
2022/09/14 10:05:27;;;;;;;31.90;20.58;;;;;;;14.56;100.00;100442.59;5225338;28;20071;-69
2022/09/14 10:08:01;;;;;;;34.28;20.85;;;;;;;14.62;100.00;100442.00;5228775;28;20053;-69
2022/09/14 10:10:37;;;;;;;32.72;21.02;;;;;;;14.72;100.00;100433.88;5248208;28;20029;-71
2022/09/14 10:13:32;;;;;;;34.25;20.40;;;;;;;14.72;100.00;100444.63;5230364;28;20044;-70
2022/09/14 10:16:07;;;;;;;32.78;20.85;;;;;;;14.68;100.00;100450.28;5235589;28;20462;-70
2022/09/14 10:18:47;;;;;;;34.55;20.05;;;;;;;14.83;100.00;100441.69;5224088;28;20028;-70
2022/09/14 10:21:21;;;;;;;34.88;20.27;;;;;;;14.80;100.00;100436.63;5233299;28;20030;-70
2022/09/14 10:24:03;;;;;;;30.97;20.50;;;;;;;14.84;100.00;100438.00;5234283;28;20463;-70
2022/09/14 10:26:35;;;;;;;31.80;20.25;;;;;;;14.96;100.00;100434.09;5227153;28;20298;-70
2022/09/14 10:29:29;;;;;;;33.47;21.65;;;;;;;14.88;100.00;100431.31;5237749;28;20047;-70
2022/09/14 10:32:17;;;;;;;27.80;19.45;;;;;;;14.83;100.00;100436.31;5220198;28;20036;-70
2022/09/14 10:34:50;;;;;;;27.42;18.73;;;;;;;14.93;100.00;100430.88;5232069;28;20548;-70
2022/09/14 10:37:30;;;;;;;35.15;20.75;;;;;;;14.85;100.00;100435.16;5217171;28;20075;-70
2022/09/14 10:40:17;;;;;;;32.25;19.58;;;;;;;14.86;100.00;100434.19;5224367;28;20064;-70
2022/09/14 10:43:07;;;;;;;31.40;18.63;;;;;;;14.81;100.00;100430.28;5219904;28;20053;-70
2022/09/14 10:45:56;;;;;;;28.48;18.38;;;;;;;14.73;100.00;100430.19;5235936;28;20460;-70
2022/09/14 10:49:09;;;;;;;27.92;18.02;;;;;;;14.78;100.00;100428.72;5222007;28;20026;-70
2022/09/14 10:52:02;;;;;;;28.55;18.02;;;;;;;14.68;100.00;100431.50;5224676;28;20050;-70
2022/09/14 10:54:54;;;;;;;26.75;16.08;;;;;;;14.82;100.00;100434.63;5232277;28;20537;-69
2022/09/14 10:57:46;;;;;;;27.02;17.52;;;;;;;14.73;100.00;100433.72;5222457;28;20029;-70
2022/09/14 11:00:21;;;;;;;26.00;17.20;;;;;;;14.81;100.00;100433.78;5224627;28;20116;-70
2022/09/14 11:03:18;;;;;;;27.55;17.50;;;;;;;14.74;100.00;100431.88;5231261;28;20429;-70
2022/09/14 11:06:01;;;;;;;26.35;17.80;;;;;;;14.68;100.00;100428.81;5229051;28;20052;-70
2022/09/14 11:08:35;;;;;;;25.27;15.75;;;;;;;14.65;100.00;100434.50;5231157;28;20040;-70
2022/09/14 11:11:30;;;;;;;23.65;15.68;;;;;;;14.73;100.00;100427.50;5231970;28;20026;-70
2022/09/14 11:14:17;;;;;;;27.15;16.63;;;;;;;14.77;100.00;100423.53;5223298;28;20037;-70
2022/09/14 11:16:51;;;;;;;26.90;15.27;;;;;;;14.58;100.00;100416.47;5232788;28;20025;-70
2022/09/14 11:19:37;;;;;;;24.15;14.27;;;;;;;14.71;100.00;100414.25;5240370;28;20101;-70
2022/09/14 11:22:40;;;;;;;25.48;15.60;;;;;;;14.78;100.00;100411.75;5224699;28;20342;-70
2022/09/14 11:25:11;;;;;;;24.38;15.88;;;;;;;14.83;100.00;100407.63;5226412;28;20041;-71
2022/09/14 11:27:51;;;;;;;21.95;15.07;;;;;;;14.83;100.00;100412.16;5219278;28;20398;-70
2022/09/14 11:30:36;;;;;;;23.92;14.60;;;;;;;14.62;100.00;100413.31;5226209;28;20029;-70
2022/09/14 11:33:17;;;;;;;24.38;14.15;;;;;;;14.76;100.00;100416.44;5229318;28;20407;-70
2022/09/14 11:35:59;;;;;;;17.52;12.70;;;;;;;14.65;100.00;100413.03;5230183;28;20032;-70
2022/09/14 11:38:35;;;;;;;21.70;13.55;;;;;;;14.61;100.00;100411.66;5215974;28;20113;-70
2022/09/14 11:41:20;;;;;;;18.23;11.95;;;;;;;14.65;100.00;100404.09;5223211;28;20090;-70
2022/09/14 11:44:16;;;;;;;17.75;12.38;;;;;;;14.72;100.00;100397.13;5236235;28;20491;-70
2022/09/14 11:46:55;;;;;;;20.58;12.77;;;;;;;14.69;100.00;100405.50;5239990;28;20030;-70